createdAt,value
2022-10-19T00:02:21.422Z,9.20
2022-10-19T00:04:49.656Z,9.10
2022-10-19T00:07:17.592Z,9.00
2022-10-19T00:09:45.933Z,8.90
2022-10-19T00:12:15.464Z,8.80
2022-10-19T00:14:43.490Z,8.70
2022-10-19T00:17:11.595Z,8.50
2022-10-19T00:19:39.624Z,8.50
2022-10-19T00:22:10.338Z,8.40
2022-10-19T00:24:41.357Z,8.50
2022-10-19T00:27:09.499Z,8.70
2022-10-19T00:29:39.199Z,8.90
2022-10-19T00:32:07.171Z,9.30
2022-10-19T00:34:35.283Z,9.60
2022-10-19T00:37:03.279Z,9.90
2022-10-19T00:39:31.305Z,10.00
2022-10-19T00:41:59.325Z,10.10
2022-10-19T00:44:46.658Z,10.20
2022-10-19T00:47:16.119Z,10.30
2022-10-19T00:49:45.325Z,10.30
2022-10-19T00:52:15.016Z,10.30
2022-10-19T00:54:44.275Z,10.30
2022-10-19T00:57:12.971Z,10.30
2022-10-19T00:59:41.627Z,10.30
2022-10-19T01:02:09.904Z,10.30
2022-10-19T01:04:41.327Z,10.30
2022-10-19T01:07:09.442Z,10.20
2022-10-19T01:09:37.569Z,10.10
2022-10-19T01:12:09.643Z,9.90
2022-10-19T01:14:43.809Z,9.80
2022-10-19T01:17:15.759Z,9.60
2022-10-19T01:20:17.084Z,9.50
2022-10-19T01:22:55.219Z,9.40
2022-10-19T01:25:24.167Z,9.30
2022-10-19T01:28:02.519Z,9.20
2022-10-19T01:30:38.527Z,9.10
2022-10-19T01:33:21.556Z,9.00
2022-10-19T01:35:53.591Z,8.80
2022-10-19T01:38:24.625Z,8.70
2022-10-19T01:40:57.152Z,8.60
2022-10-19T01:43:29.241Z,8.50
2022-10-19T01:46:02.279Z,8.40
2022-10-19T01:48:32.099Z,8.30
2022-10-19T01:51:01.494Z,8.20
2022-10-19T01:53:30.366Z,8.10
2022-10-19T01:55:58.768Z,8.00
2022-10-19T01:58:28.378Z,8.00
2022-10-19T02:00:58.131Z,8.00
2022-10-19T02:03:28.522Z,7.90
2022-10-19T02:05:57.605Z,8.00
2022-10-19T02:08:27.785Z,7.90
2022-10-19T02:10:56.031Z,8.00
2022-10-19T02:13:24.292Z,8.00
2022-10-19T02:15:53.971Z,8.00
2022-10-19T02:18:25.433Z,7.90
2022-10-19T02:20:55.528Z,7.90
2022-10-19T02:23:24.855Z,8.00
2022-10-19T02:25:52.822Z,7.90
2022-10-19T02:28:21.145Z,8.00
2022-10-19T02:30:49.362Z,7.90
2022-10-19T02:33:17.636Z,7.90
2022-10-19T02:35:45.685Z,7.90
2022-10-19T02:38:17.034Z,7.90
2022-10-19T02:40:47.259Z,8.00
2022-10-19T02:43:19.323Z,8.10
2022-10-19T02:45:49.619Z,8.20
2022-10-19T02:48:20.076Z,8.30
2022-10-19T02:50:48.802Z,8.50
2022-10-19T02:53:18.224Z,8.60
2022-10-19T02:55:48.234Z,8.70
2022-10-19T02:58:16.286Z,8.70
2022-10-19T03:00:44.354Z,8.70
2022-10-19T03:03:12.531Z,8.60
2022-10-19T03:05:40.715Z,8.50
2022-10-19T03:08:08.839Z,8.40
2022-10-19T03:10:38.325Z,8.40
2022-10-19T03:13:06.469Z,8.40
2022-10-19T03:15:34.795Z,8.40
2022-10-19T03:18:02.856Z,8.50
2022-10-19T03:20:30.791Z,8.50
2022-10-19T03:22:58.813Z,8.50
2022-10-19T03:25:27.295Z,8.40
2022-10-19T03:27:56.838Z,8.40
2022-10-19T03:30:24.906Z,8.40
2022-10-19T03:32:52.902Z,8.20
2022-10-19T03:35:20.904Z,8.20
2022-10-19T03:37:48.877Z,8.10
2022-10-19T03:40:17.066Z,8.10
2022-10-19T03:42:45.112Z,8.10
2022-10-19T03:45:14.676Z,8.20
2022-10-19T03:47:42.740Z,8.20
2022-10-19T03:50:14.296Z,8.20
2022-10-19T03:52:42.389Z,8.20
2022-10-19T03:55:10.586Z,8.20
2022-10-19T03:57:38.658Z,8.20
2022-10-19T04:00:07.119Z,8.20
2022-10-19T04:02:36.821Z,8.10
2022-10-19T04:05:05.036Z,8.10
2022-10-19T04:07:33.356Z,8.10
2022-10-19T04:10:01.867Z,8.10
2022-10-19T04:12:29.972Z,8.00
2022-10-19T04:14:58.146Z,8.00
2022-10-19T04:17:26.719Z,8.00
2022-10-19T04:19:56.199Z,8.00
2022-10-19T04:22:24.348Z,8.00
2022-10-19T04:24:52.467Z,8.00
2022-10-19T04:27:20.426Z,8.10
2022-10-19T04:29:48.318Z,8.10
2022-10-19T04:32:16.467Z,8.10
2022-10-19T04:34:44.447Z,8.10
2022-10-19T04:37:13.856Z,8.10
2022-10-19T04:39:43.587Z,8.10
2022-10-19T04:42:11.650Z,8.10
2022-10-19T04:44:40.677Z,8.10
2022-10-19T04:47:08.823Z,8.10
2022-10-19T04:49:36.871Z,8.10
2022-10-19T04:52:04.979Z,8.10
2022-10-19T04:54:34.526Z,8.10
2022-10-19T04:57:02.619Z,8.10
2022-10-19T04:59:30.615Z,8.10
2022-10-19T05:01:58.724Z,8.00
2022-10-19T05:04:26.732Z,8.00
2022-10-19T05:06:54.670Z,8.00
2022-10-19T05:09:23.655Z,8.00
2022-10-19T05:11:53.084Z,8.00
2022-10-19T05:14:21.058Z,8.00
2022-10-19T05:16:49.166Z,8.00
2022-10-19T05:19:17.155Z,8.00
2022-10-19T05:21:45.235Z,8.10
2022-10-19T05:24:13.638Z,8.10
2022-10-19T05:26:41.727Z,8.10
2022-10-19T05:29:12.765Z,8.10
2022-10-19T05:31:41.176Z,8.10
2022-10-19T05:34:09.295Z,8.10
2022-10-19T05:36:38.487Z,8.10
2022-10-19T05:39:07.765Z,8.10
2022-10-19T05:41:36.006Z,8.10
2022-10-19T05:44:04.735Z,8.10
2022-10-19T05:46:34.836Z,8.10
2022-10-19T05:49:02.907Z,8.10
2022-10-19T05:51:31.114Z,8.10
2022-10-19T05:53:59.283Z,8.20
2022-10-19T05:56:27.716Z,8.10
2022-10-19T05:58:56.698Z,8.20
2022-10-19T06:01:25.013Z,8.20
2022-10-19T06:04:02.733Z,8.20
2022-10-19T06:06:45.931Z,8.20
2022-10-19T06:09:14.015Z,8.30
2022-10-19T06:11:42.510Z,8.30
2022-10-19T06:14:12.804Z,8.30
2022-10-19T06:16:40.928Z,8.30
2022-10-19T06:19:10.550Z,8.30
2022-10-19T06:21:40.686Z,8.30
2022-10-19T06:24:11.830Z,8.30
2022-10-19T06:26:39.790Z,8.40
2022-10-19T06:29:08.641Z,8.40
2022-10-19T06:31:37.359Z,8.40
2022-10-19T06:34:06.071Z,8.40
2022-10-19T06:36:35.942Z,8.50
2022-10-19T06:39:04.408Z,8.50
2022-10-19T06:41:32.650Z,8.50
2022-10-19T06:44:00.759Z,8.50
2022-10-19T06:46:28.917Z,8.50
2022-10-19T06:48:57.723Z,8.50
2022-10-19T06:51:26.817Z,8.50
2022-10-19T06:53:57.547Z,8.50
2022-10-19T06:56:26.124Z,8.50
2022-10-19T06:58:54.677Z,8.50
2022-10-19T07:01:23.087Z,8.60
2022-10-19T07:03:51.936Z,8.60
2022-10-19T07:06:20.580Z,8.70
2022-10-19T07:08:48.723Z,8.70
2022-10-19T07:11:19.468Z,8.80
2022-10-19T07:13:47.579Z,8.90
2022-10-19T07:16:20.723Z,8.90
2022-10-19T07:18:49.982Z,8.90
2022-10-19T07:21:18.337Z,8.90
2022-10-19T07:23:47.426Z,8.90
2022-10-19T07:26:16.687Z,8.90
2022-10-19T07:28:47.010Z,8.90
2022-10-19T07:31:17.887Z,9.00
2022-10-19T07:33:46.183Z,9.00
2022-10-19T07:36:15.789Z,9.00
2022-10-19T07:38:43.888Z,9.00
2022-10-19T07:41:13.525Z,9.00
2022-10-19T07:43:42.169Z,9.00
2022-10-19T07:46:12.824Z,9.00
2022-10-19T07:48:40.851Z,9.10
2022-10-19T07:51:09.368Z,9.20
2022-10-19T07:53:37.564Z,9.20
2022-10-19T07:56:06.096Z,9.30
2022-10-19T07:58:34.511Z,9.30
2022-10-19T08:01:03.016Z,9.40
2022-10-19T08:04:14.344Z,9.50
2022-10-19T08:06:20.829Z,9.50
2022-10-19T08:08:49.464Z,9.60
2022-10-19T08:11:18.560Z,9.70
2022-10-19T08:13:46.581Z,9.70
2022-10-19T08:16:25.236Z,9.80
2022-10-19T08:18:57.018Z,9.80
2022-10-19T08:21:25.121Z,9.80
2022-10-19T08:23:53.116Z,9.70
2022-10-19T08:26:21.439Z,9.70
2022-10-19T08:28:49.699Z,9.80
2022-10-19T08:31:19.387Z,9.90
2022-10-19T08:33:47.676Z,10.00
2022-10-19T08:36:17.515Z,10.10
2022-10-19T08:38:45.789Z,10.30
2022-10-19T08:41:20.316Z,10.40
2022-10-19T08:43:53.442Z,10.50
2022-10-19T08:46:26.118Z,10.50
2022-10-19T08:48:54.286Z,10.60
2022-10-19T08:51:23.903Z,10.80
2022-10-19T08:53:54.731Z,10.90
2022-10-19T08:56:49.325Z,11.00
2022-10-19T08:59:18.837Z,11.00
2022-10-19T09:01:50.961Z,11.10
2022-10-19T09:04:22.936Z,11.30
2022-10-19T09:06:59.167Z,11.60
2022-10-19T09:09:29.875Z,11.70
2022-10-19T09:11:59.807Z,11.80
2022-10-19T09:14:32.144Z,11.80
2022-10-19T09:17:02.694Z,11.90
2022-10-19T09:19:33.567Z,11.90
2022-10-19T09:22:05.581Z,11.90
2022-10-19T09:24:38.460Z,11.70
2022-10-19T09:27:07.075Z,11.70
2022-10-19T09:29:38.600Z,11.70
2022-10-19T09:32:07.850Z,11.70
2022-10-19T09:34:37.680Z,11.80
2022-10-19T09:37:07.161Z,11.90
2022-10-19T09:39:35.362Z,12.20
2022-10-19T09:42:06.735Z,12.20
2022-10-19T09:44:34.931Z,12.20
2022-10-19T09:47:09.106Z,12.20
2022-10-19T09:49:41.888Z,12.20
2022-10-19T09:52:24.880Z,12.00
2022-10-19T09:55:01.044Z,11.80
2022-10-19T09:57:29.375Z,11.70
2022-10-19T09:59:57.562Z,11.80
2022-10-19T10:02:30.911Z,11.90
2022-10-19T10:05:04.811Z,12.10
2022-10-19T10:07:35.375Z,12.30
2022-10-19T10:10:09.695Z,12.20
2022-10-19T10:12:38.524Z,12.10
2022-10-19T10:15:07.790Z,12.00
2022-10-19T10:17:37.367Z,11.90
2022-10-19T10:20:18.573Z,11.90
2022-10-19T10:22:53.197Z,11.90
2022-10-19T10:25:23.158Z,11.90
2022-10-19T10:28:02.347Z,11.70
2022-10-19T10:30:32.814Z,11.60
2022-10-19T10:33:09.286Z,11.50
2022-10-19T10:35:53.704Z,11.40
2022-10-19T10:38:24.483Z,11.50
2022-10-19T10:40:54.685Z,11.50
2022-10-19T10:43:26.644Z,11.60
2022-10-19T10:45:55.890Z,11.70
2022-10-19T10:48:28.967Z,11.80
2022-10-19T10:50:57.455Z,11.80
2022-10-19T10:53:48.658Z,11.90
2022-10-19T10:56:25.979Z,11.90
2022-10-19T10:58:57.411Z,12.00
2022-10-19T11:01:27.982Z,12.00
2022-10-19T11:03:58.648Z,12.10
2022-10-19T11:06:27.144Z,12.20
2022-10-19T11:09:00.311Z,12.10
2022-10-19T11:11:33.785Z,12.00
2022-10-19T11:14:08.341Z,11.90
2022-10-19T11:16:39.839Z,11.80
2022-10-19T11:19:12.675Z,11.80
2022-10-19T11:21:44.344Z,11.80
2022-10-19T11:24:17.850Z,11.70
2022-10-19T11:26:56.019Z,11.60
2022-10-19T11:29:39.239Z,11.60
2022-10-19T11:32:12.683Z,11.60
2022-10-19T11:34:47.562Z,11.60
2022-10-19T11:37:19.080Z,11.70
2022-10-19T11:39:52.341Z,11.80
2022-10-19T11:42:24.070Z,11.90
2022-10-19T11:45:01.543Z,12.00
2022-10-19T11:47:37.715Z,12.00
2022-10-19T11:50:13.562Z,12.10
2022-10-19T11:52:46.802Z,12.10
2022-10-19T11:55:20.612Z,12.00
2022-10-19T11:57:53.026Z,12.00
2022-10-19T12:00:38.089Z,12.00
2022-10-19T12:03:17.915Z,11.90
2022-10-19T12:05:51.527Z,12.00
2022-10-19T12:08:28.846Z,12.10
2022-10-19T12:11:00.844Z,12.10
2022-10-19T12:13:41.864Z,12.10
2022-10-19T12:16:11.829Z,11.90
2022-10-19T12:18:41.552Z,11.80
2022-10-19T12:21:11.166Z,11.70
2022-10-19T12:23:40.244Z,11.70
2022-10-19T12:26:09.836Z,11.70
2022-10-19T12:28:41.978Z,11.80
2022-10-19T12:31:10.771Z,11.80
2022-10-19T12:33:45.687Z,11.90
2022-10-19T12:36:18.591Z,11.90
2022-10-19T12:38:59.679Z,11.90
2022-10-19T12:41:31.564Z,11.80
2022-10-19T12:44:28.431Z,11.60
2022-10-19T12:47:00.765Z,11.40
2022-10-19T12:49:44.823Z,11.30
2022-10-19T12:52:13.728Z,11.30
2022-10-19T12:54:43.464Z,11.40
2022-10-19T12:57:29.323Z,11.50
2022-10-19T13:00:03.360Z,11.80
2022-10-19T13:05:06.146Z,12.20
2022-10-19T13:07:36.490Z,12.40
2022-10-19T13:10:06.795Z,12.50
2022-10-19T13:12:44.289Z,12.50
2022-10-19T13:15:30.932Z,12.60
2022-10-19T13:18:00.635Z,12.50
2022-10-19T13:20:47.391Z,12.50
2022-10-19T13:23:34.133Z,12.50
2022-10-19T13:26:16.907Z,12.40
2022-10-19T13:28:53.476Z,12.30
2022-10-19T13:31:26.257Z,12.10
2022-10-19T13:33:56.779Z,11.90
2022-10-19T13:36:26.007Z,11.70
2022-10-19T13:39:06.229Z,11.60
2022-10-19T13:41:48.287Z,11.50
2022-10-19T13:44:20.339Z,11.50
2022-10-19T13:47:14.851Z,11.40
2022-10-19T13:50:00.208Z,11.50
2022-10-19T13:52:39.012Z,11.50
2022-10-19T13:55:23.572Z,11.50
2022-10-19T13:58:02.846Z,11.50
2022-10-19T14:00:33.376Z,11.70
2022-10-19T14:03:12.011Z,11.70
2022-10-19T14:05:49.047Z,11.80
2022-10-19T14:08:25.633Z,11.80
2022-10-19T14:11:01.329Z,11.70
2022-10-19T14:13:29.818Z,11.70
2022-10-19T14:15:58.712Z,11.70
2022-10-19T14:18:27.674Z,11.60
2022-10-19T14:21:01.520Z,11.50
2022-10-19T14:23:30.626Z,11.40
2022-10-19T14:26:00.258Z,11.40
2022-10-19T14:28:29.073Z,11.30
2022-10-19T14:30:58.168Z,11.30
2022-10-19T14:33:27.296Z,11.20
2022-10-19T14:35:58.369Z,11.10
2022-10-19T14:38:29.905Z,10.90
2022-10-19T14:40:58.147Z,10.90
2022-10-19T14:43:26.989Z,10.80
2022-10-19T14:46:07.706Z,10.60
2022-10-19T14:48:36.673Z,10.40
2022-10-19T14:51:06.932Z,10.30
2022-10-19T14:53:38.962Z,10.00
2022-10-19T14:56:09.178Z,9.80
2022-10-19T14:58:39.740Z,9.70
2022-10-19T15:01:10.970Z,9.40
2022-10-19T15:03:43.642Z,9.30
2022-10-19T15:06:17.220Z,9.20
2022-10-19T15:08:50.166Z,9.10
2022-10-19T15:11:23.867Z,9.10
2022-10-19T15:13:57.102Z,9.00
2022-10-19T15:16:29.757Z,9.00
2022-10-19T15:19:00.275Z,9.00
2022-10-19T15:21:33.495Z,8.90
2022-10-19T15:24:17.168Z,8.80
2022-10-19T15:27:01.741Z,8.70
2022-10-19T15:29:36.718Z,8.60
2022-10-19T15:32:15.518Z,8.50
2022-10-19T15:34:45.022Z,8.40
2022-10-19T15:37:18.035Z,8.30
2022-10-19T15:39:50.823Z,8.20
2022-10-19T15:42:44.511Z,8.00
2022-10-19T15:45:29.176Z,7.90
2022-10-19T15:48:12.156Z,7.80
2022-10-19T15:50:42.236Z,7.70
2022-10-19T15:53:10.205Z,7.70
2022-10-19T15:55:42.622Z,7.60
2022-10-19T15:58:11.025Z,7.60
2022-10-19T16:00:39.722Z,7.60
2022-10-19T16:03:07.854Z,7.50
2022-10-19T16:05:36.367Z,7.40
2022-10-19T16:08:07.828Z,7.30
2022-10-19T16:10:38.409Z,7.20
2022-10-19T16:13:08.032Z,7.20
2022-10-19T16:15:37.235Z,7.10
2022-10-19T16:18:05.599Z,7.10
2022-10-19T16:20:33.921Z,7.00
2022-10-19T16:23:02.042Z,6.90
2022-10-19T16:25:30.263Z,6.90
2022-10-19T16:27:58.604Z,6.70
2022-10-19T16:30:28.323Z,6.60
2022-10-19T16:32:56.810Z,6.50
2022-10-19T16:35:25.525Z,6.50
2022-10-19T16:37:54.320Z,6.50
2022-10-19T16:40:24.690Z,6.40
2022-10-19T16:42:52.805Z,6.30
2022-10-19T16:45:21.366Z,6.20
2022-10-19T16:47:52.293Z,6.20
2022-10-19T16:50:20.567Z,6.10
2022-10-19T16:52:48.684Z,6.10
2022-10-19T16:55:16.639Z,6.10
2022-10-19T16:57:44.637Z,6.00
2022-10-19T17:00:13.744Z,5.90
2022-10-19T17:02:44.377Z,5.80
2022-10-19T17:05:16.185Z,5.80
2022-10-19T17:07:47.210Z,5.70
2022-10-19T17:10:16.480Z,5.70
2022-10-19T17:12:44.642Z,5.70
2022-10-19T17:18:01.471Z,5.70
2022-10-19T17:20:37.130Z,5.70
2022-10-19T17:23:05.301Z,5.70
2022-10-19T17:25:33.409Z,5.60
2022-10-19T17:28:01.424Z,5.50
2022-10-19T17:30:29.522Z,5.50
2022-10-19T17:32:57.540Z,5.40
2022-10-19T17:35:25.730Z,5.50
2022-10-19T17:37:55.503Z,5.30
2022-10-19T17:40:23.805Z,5.20
2022-10-19T17:42:54.812Z,5.10
2022-10-19T17:45:31.478Z,5.10
2022-10-19T17:48:10.186Z,5.00
2022-10-19T17:50:53.522Z,4.90
2022-10-19T17:53:23.578Z,4.90
2022-10-19T17:56:04.136Z,4.80
2022-10-19T17:58:51.769Z,4.70
2022-10-19T18:01:47.792Z,4.50
2022-10-19T18:04:27.934Z,4.50
2022-10-19T18:07:12.717Z,4.40
2022-10-19T18:12:49.263Z,4.40
2022-10-19T18:18:51.817Z,4.20
2022-10-19T18:21:51.425Z,4.10
2022-10-19T18:24:30.545Z,4.00
2022-10-19T18:30:48.156Z,4.00
2022-10-19T18:33:48.961Z,4.00
2022-10-19T18:40:07.162Z,3.90
2022-10-19T18:46:18.372Z,3.80
2022-10-19T19:00:43.433Z,3.70
2022-10-19T23:14:24.636Z,3.80
2022-10-19T23:17:40.298Z,3.80
2022-10-19T23:20:09.247Z,3.70
2022-10-19T23:23:06.587Z,3.60
2022-10-19T23:29:21.860Z,3.50
2022-10-19T23:31:51.734Z,3.40
2022-10-19T23:34:38.928Z,3.40
2022-10-19T23:47:22.292Z,2.70
